createdAt,value
2023-01-04T00:00:18.995Z,11.07
2023-01-04T00:02:45.787Z,11.24
2023-01-04T00:05:12.565Z,11.31
2023-01-04T00:07:39.196Z,11.68
2023-01-04T00:10:06.096Z,11.73
2023-01-04T00:12:34.817Z,11.56
2023-01-04T00:15:01.438Z,13.01
2023-01-04T00:17:28.024Z,12.24
2023-01-04T00:19:54.628Z,12.42
2023-01-04T00:22:21.297Z,12.86
2023-01-04T00:24:47.915Z,12.76
2023-01-04T00:27:14.537Z,12.90
2023-01-04T00:29:41.135Z,13.11
2023-01-04T00:32:07.837Z,13.60
2023-01-04T00:34:34.436Z,12.95
2023-01-04T00:37:01.037Z,13.69
2023-01-04T00:39:27.719Z,13.16
2023-01-04T00:41:59.822Z,12.95
2023-01-04T00:44:28.392Z,12.89
2023-01-04T00:46:57.615Z,13.78
2023-01-04T00:49:25.236Z,13.52
2023-01-04T00:51:52.033Z,13.39
2023-01-04T00:54:19.119Z,13.04
2023-01-04T00:56:45.751Z,13.26
2023-01-04T00:59:15.082Z,13.38
2023-01-04T01:01:42.975Z,13.42
2023-01-04T01:04:13.458Z,13.77
2023-01-04T01:06:40.569Z,13.97
2023-01-04T01:09:08.200Z,13.94
2023-01-04T01:11:35.011Z,14.26
2023-01-04T01:14:01.625Z,13.95
2023-01-04T01:16:53.921Z,14.51
2023-01-04T01:19:16.715Z,14.11
2023-01-04T01:21:43.387Z,13.75
2023-01-04T01:24:18.702Z,14.38
2023-01-04T01:26:45.732Z,14.46
2023-01-04T01:29:12.526Z,14.49
2023-01-04T01:31:41.169Z,14.69
2023-01-04T01:34:08.243Z,14.21
2023-01-04T01:36:36.536Z,13.85
2023-01-04T01:39:03.306Z,13.03
2023-01-04T01:41:35.382Z,13.32
2023-01-04T01:44:06.647Z,13.03
2023-01-04T01:46:50.460Z,13.08
2023-01-04T01:49:32.309Z,13.52
2023-01-04T01:52:03.840Z,12.89
2023-01-04T01:54:36.965Z,13.55
2023-01-04T01:57:07.332Z,14.21
2023-01-04T01:59:40.458Z,14.64
2023-01-04T02:02:08.490Z,13.95
2023-01-04T02:04:41.504Z,14.13
2023-01-04T02:07:11.999Z,13.41
2023-01-04T02:09:40.672Z,13.81
2023-01-04T02:12:11.775Z,12.84
2023-01-04T02:14:40.621Z,13.37
2023-01-04T02:17:16.180Z,13.14
2023-01-04T02:20:04.200Z,13.16
2023-01-04T02:22:33.510Z,13.62
2023-01-04T02:25:54.224Z,13.47
2023-01-04T02:28:39.021Z,13.57
2023-01-04T02:31:24.643Z,13.94
2023-01-04T02:34:13.164Z,13.95
2023-01-04T02:36:51.975Z,13.85
2023-01-04T02:39:48.835Z,14.13
2023-01-04T02:42:27.405Z,14.22
2023-01-04T02:45:04.754Z,14.46
2023-01-04T02:47:36.681Z,14.03
2023-01-04T02:50:17.411Z,14.04
2023-01-04T02:52:44.151Z,13.92
2023-01-04T02:55:11.010Z,14.33
2023-01-04T02:58:00.357Z,13.56
2023-01-04T03:00:54.545Z,13.21
2023-01-04T03:03:34.170Z,13.13
2023-01-04T03:06:16.321Z,13.37
2023-01-04T03:08:54.988Z,13.50
2023-01-04T03:11:21.863Z,13.35
2023-01-04T03:13:48.917Z,12.87
2023-01-04T03:16:23.096Z,12.68
2023-01-04T03:18:56.194Z,12.62
2023-01-04T03:21:27.043Z,12.48
2023-01-04T03:24:00.484Z,11.80
2023-01-04T03:26:34.022Z,12.03
2023-01-04T03:29:16.005Z,12.26
2023-01-04T03:32:06.696Z,12.75
2023-01-04T03:34:33.876Z,12.50
2023-01-04T03:37:15.748Z,12.08
2023-01-04T03:40:01.182Z,11.59
2023-01-04T03:42:42.273Z,11.52
2023-01-04T03:45:17.948Z,11.86
2023-01-04T03:48:23.122Z,11.71
2023-01-04T03:50:58.635Z,11.35
2023-01-04T03:53:27.397Z,11.91
2023-01-04T03:55:58.305Z,12.52
2023-01-04T03:58:25.846Z,12.82
2023-01-04T04:00:52.729Z,12.84
2023-01-04T04:03:19.389Z,12.76
2023-01-04T04:05:48.084Z,12.65
2023-01-04T04:08:14.719Z,12.64
2023-01-04T04:10:41.348Z,12.82
2023-01-04T04:13:07.974Z,13.52
2023-01-04T04:15:35.639Z,13.24
2023-01-04T04:18:02.281Z,13.26
2023-01-04T04:20:28.935Z,13.15
2023-01-04T04:22:55.542Z,12.61
2023-01-04T04:25:22.150Z,13.42
2023-01-04T04:27:48.885Z,13.27
2023-01-04T04:30:15.580Z,13.47
2023-01-04T04:32:42.704Z,13.36
2023-01-04T04:35:10.039Z,13.23
2023-01-04T04:37:36.653Z,13.53
2023-01-04T04:40:05.000Z,13.85
2023-01-04T04:42:31.664Z,13.43
2023-01-04T04:44:58.291Z,13.31
2023-01-04T04:47:24.946Z,13.58
2023-01-04T04:49:51.832Z,13.40
2023-01-04T04:52:18.438Z,13.73
2023-01-04T04:54:45.067Z,13.24
2023-01-04T04:57:11.656Z,12.74
2023-01-04T04:59:38.243Z,12.93
2023-01-04T05:02:05.005Z,13.12
2023-01-04T05:04:31.748Z,13.12
2023-01-04T05:06:58.384Z,12.34
2023-01-04T05:09:25.058Z,12.80
2023-01-04T05:11:51.737Z,12.90
2023-01-04T05:14:18.423Z,12.50
2023-01-04T05:16:45.172Z,12.17
2023-01-04T05:19:11.852Z,12.49
2023-01-04T05:21:38.518Z,12.84
2023-01-04T05:24:05.361Z,12.09
2023-01-04T05:26:32.171Z,12.34
2023-01-04T05:28:58.862Z,13.49
2023-01-04T05:31:26.137Z,13.96
2023-01-04T05:33:52.755Z,15.63
2023-01-04T05:36:19.360Z,15.86
2023-01-04T05:38:46.060Z,16.19
2023-01-04T05:41:12.649Z,16.14
2023-01-04T05:43:39.298Z,15.79
2023-01-04T05:46:05.988Z,16.24
2023-01-04T05:48:32.606Z,15.29
2023-01-04T05:50:59.204Z,16.01
2023-01-04T05:53:25.816Z,15.81
2023-01-04T05:55:52.647Z,15.15
2023-01-04T05:58:19.342Z,15.14
2023-01-04T06:00:45.954Z,15.14
2023-01-04T06:03:12.708Z,15.11
2023-01-04T06:05:39.442Z,14.47
2023-01-04T06:08:06.394Z,14.47
2023-01-04T06:10:33.312Z,14.22
2023-01-04T06:12:59.943Z,14.35
2023-01-04T06:15:26.599Z,14.21
2023-01-04T06:17:53.211Z,14.38
2023-01-04T06:20:19.888Z,14.92
2023-01-04T06:22:46.576Z,14.65
2023-01-04T06:25:13.212Z,12.18
2023-01-04T06:27:39.847Z,12.99
2023-01-04T06:30:07.018Z,12.55
2023-01-04T06:32:33.850Z,13.27
2023-01-04T06:35:00.496Z,13.04
2023-01-04T06:37:27.709Z,13.39
2023-01-04T06:39:54.381Z,13.71
2023-01-04T06:42:21.026Z,13.85
2023-01-04T06:44:47.681Z,14.46
2023-01-04T06:47:14.319Z,14.80
2023-01-04T06:49:40.951Z,14.28
2023-01-04T06:52:07.643Z,14.10
2023-01-04T06:54:34.299Z,15.36
2023-01-04T06:57:00.888Z,15.39
2023-01-04T06:59:27.491Z,16.14
2023-01-04T07:01:54.353Z,16.77
2023-01-04T07:04:21.269Z,18.00
2023-01-04T07:06:47.939Z,18.17
2023-01-04T07:09:14.616Z,18.01
2023-01-04T07:11:41.258Z,19.05
2023-01-04T07:14:07.890Z,17.90
2023-01-04T07:16:34.534Z,18.46
2023-01-04T07:19:01.351Z,18.32
2023-01-04T07:21:28.654Z,18.31
2023-01-04T07:23:56.581Z,18.11
2023-01-04T07:26:23.411Z,18.63
2023-01-04T07:28:50.295Z,18.12
2023-01-04T07:31:16.957Z,18.34
2023-01-04T07:33:44.150Z,18.01
2023-01-04T07:36:10.936Z,18.10
2023-01-04T07:38:37.688Z,17.11
2023-01-04T07:41:04.443Z,17.18
2023-01-04T07:43:31.181Z,16.69
2023-01-04T07:45:58.032Z,17.06
2023-01-04T07:48:24.804Z,16.60
2023-01-04T07:50:51.482Z,16.09
2023-01-04T07:53:18.147Z,16.77
2023-01-04T07:55:45.069Z,16.57
2023-01-04T07:58:12.512Z,17.13
2023-01-04T08:00:39.293Z,16.97
2023-01-04T08:03:05.997Z,16.84
2023-01-04T08:05:34.599Z,16.52
2023-01-04T08:08:01.688Z,16.57
2023-01-04T08:10:28.395Z,15.91
2023-01-04T08:12:58.131Z,13.93
2023-01-04T08:15:24.784Z,15.33
2023-01-04T08:17:51.449Z,16.15
2023-01-04T08:20:18.739Z,15.63
2023-01-04T08:22:45.383Z,15.68
2023-01-04T08:25:12.039Z,15.28
2023-01-04T08:27:38.667Z,15.47
2023-01-04T08:30:05.787Z,16.13
2023-01-04T08:32:32.438Z,15.49
2023-01-04T08:34:59.266Z,15.73
2023-01-04T08:37:25.901Z,15.72
2023-01-04T08:39:52.563Z,16.02
2023-01-04T08:42:25.171Z,15.33
2023-01-04T08:44:59.937Z,15.54
2023-01-04T08:47:28.251Z,15.36
2023-01-04T08:49:55.933Z,14.67
2023-01-04T08:52:23.059Z,15.53
2023-01-04T08:54:50.105Z,16.12
2023-01-04T08:57:19.937Z,17.04
2023-01-04T08:59:46.721Z,16.30
2023-01-04T09:02:23.271Z,15.19
2023-01-04T09:04:50.828Z,15.15
2023-01-04T09:07:18.145Z,15.72
2023-01-04T09:09:44.828Z,16.42
2023-01-04T09:12:11.491Z,16.53
2023-01-04T09:14:41.000Z,16.54
2023-01-04T09:17:07.672Z,16.80
2023-01-04T09:19:34.614Z,16.93
2023-01-04T09:22:01.746Z,16.27
2023-01-04T09:24:28.456Z,16.30
2023-01-04T09:26:55.177Z,15.29
2023-01-04T09:29:21.910Z,15.57
2023-01-04T09:31:48.640Z,14.73
2023-01-04T09:34:17.476Z,15.13
2023-01-04T09:36:46.348Z,15.33
2023-01-04T09:39:21.835Z,15.39
2023-01-04T09:42:01.676Z,15.63
2023-01-04T09:47:51.991Z,15.27
2023-01-04T09:50:36.520Z,14.90
2023-01-04T09:53:12.176Z,14.14
2023-01-04T09:55:44.325Z,15.03
2023-01-04T09:58:23.578Z,15.26
2023-01-04T10:01:19.511Z,15.05
2023-01-04T10:04:05.995Z,14.96
2023-01-04T10:06:34.605Z,14.55
2023-01-04T10:09:06.355Z,14.05
2023-01-04T10:11:54.913Z,14.35
2023-01-04T10:15:00.723Z,13.37
2023-01-04T10:19:50.509Z,12.62
2023-01-04T10:24:02.811Z,12.28
2023-01-04T10:26:40.252Z,12.14
2023-01-04T10:29:13.052Z,11.85
2023-01-04T10:32:15.174Z,12.25
2023-01-04T10:34:44.757Z,12.35
2023-01-04T10:37:25.013Z,12.35
2023-01-04T10:39:54.134Z,12.27
2023-01-04T10:42:20.765Z,12.60
2023-01-04T10:45:09.352Z,12.27
2023-01-04T10:47:53.165Z,11.81
2023-01-04T10:50:25.082Z,11.98
2023-01-04T10:53:02.653Z,11.92
2023-01-04T10:56:26.094Z,11.81
2023-01-04T10:58:55.334Z,12.14
2023-01-04T11:01:47.061Z,12.59
2023-01-04T11:04:29.507Z,11.61
2023-01-04T11:07:07.511Z,11.58
2023-01-04T11:09:46.512Z,11.77
2023-01-04T11:12:17.925Z,11.38
2023-01-04T11:14:44.902Z,10.29
2023-01-04T11:17:13.029Z,8.28
2023-01-04T11:19:41.173Z,8.57
2023-01-04T11:22:24.195Z,8.07
2023-01-04T11:28:08.004Z,7.76
2023-01-04T11:31:02.018Z,7.23
2023-01-04T11:33:28.792Z,9.37
2023-01-04T11:35:57.878Z,8.48
2023-01-04T11:38:30.632Z,10.24
2023-01-04T11:40:57.882Z,11.12
2023-01-04T11:43:26.665Z,6.99
2023-01-04T11:46:05.530Z,7.72
2023-01-04T11:48:36.582Z,8.32
2023-01-04T11:51:04.752Z,7.35
2023-01-04T11:53:37.086Z,6.91
2023-01-04T11:56:13.172Z,7.19
2023-01-04T11:58:41.777Z,9.30
2023-01-04T12:01:29.124Z,7.58
2023-01-04T12:03:56.076Z,7.47
2023-01-04T12:06:38.472Z,7.48
2023-01-04T12:09:05.805Z,7.11
2023-01-04T12:11:36.601Z,8.35
2023-01-04T12:14:04.198Z,8.01
2023-01-04T12:16:57.597Z,11.37
2023-01-04T12:19:26.138Z,9.19
2023-01-04T12:21:57.093Z,8.23
2023-01-04T12:24:30.877Z,7.39
2023-01-04T12:26:58.608Z,7.36
2023-01-04T12:29:25.249Z,7.22
2023-01-04T12:31:52.773Z,7.08
2023-01-04T12:34:22.059Z,7.75
2023-01-04T12:36:51.363Z,8.31
2023-01-04T12:39:20.821Z,8.72
2023-01-04T12:41:47.446Z,9.33
2023-01-04T12:44:38.847Z,9.58
2023-01-04T12:47:17.711Z,10.03
2023-01-04T12:49:59.210Z,9.88
2023-01-04T12:52:48.024Z,9.76
2023-01-04T12:55:27.396Z,10.19
2023-01-04T12:57:54.184Z,9.40
2023-01-04T13:00:20.825Z,8.82
2023-01-04T13:03:16.337Z,9.04
2023-01-04T13:06:02.418Z,9.26
2023-01-04T13:08:30.343Z,8.98
2023-01-04T13:11:04.025Z,8.85
2023-01-04T13:13:49.179Z,8.70
2023-01-04T13:16:50.777Z,24.09
2023-01-04T13:19:26.372Z,54.70
2023-01-04T13:21:57.016Z,36.97
2023-01-04T13:24:33.289Z,20.13
2023-01-04T13:27:18.195Z,10.89
2023-01-04T13:29:46.488Z,10.89
2023-01-04T13:32:21.411Z,8.63
2023-01-04T13:34:57.119Z,9.98
2023-01-04T13:37:26.980Z,11.48
2023-01-04T13:40:21.677Z,8.97
2023-01-04T13:42:57.745Z,8.26
2023-01-04T13:45:49.229Z,8.74
2023-01-04T13:48:20.626Z,9.22
2023-01-04T13:51:03.875Z,8.24
2023-01-04T13:53:32.570Z,8.06
2023-01-04T13:56:01.778Z,8.95
2023-01-04T13:58:34.433Z,8.49
2023-01-04T14:01:06.818Z,8.19
2023-01-04T14:03:56.706Z,9.57
2023-01-04T14:06:39.847Z,9.05
2023-01-04T14:09:14.815Z,8.16
2023-01-04T14:12:08.515Z,8.61
2023-01-04T14:14:38.258Z,8.25
2023-01-04T14:17:14.789Z,7.79
2023-01-04T14:19:59.444Z,8.76
2023-01-04T14:22:28.093Z,8.39
2023-01-04T14:25:08.925Z,8.19
2023-01-04T14:27:42.837Z,8.47
2023-01-04T14:30:24.166Z,8.47
2023-01-04T14:33:14.053Z,8.51
2023-01-04T14:35:46.457Z,8.57
2023-01-04T14:38:22.145Z,8.52
2023-01-04T14:40:48.832Z,8.71
2023-01-04T14:43:35.012Z,8.52
2023-01-04T14:46:04.486Z,8.77
2023-01-04T14:48:31.346Z,8.33
2023-01-04T14:51:00.557Z,8.87
2023-01-04T14:53:28.025Z,8.80
2023-01-04T14:55:55.211Z,9.26
2023-01-04T14:58:22.104Z,9.15
2023-01-04T15:00:48.927Z,9.16
2023-01-04T15:03:15.861Z,9.85
2023-01-04T15:05:47.110Z,9.67
2023-01-04T15:08:13.757Z,10.37
2023-01-04T15:10:40.471Z,9.89
2023-01-04T15:13:07.145Z,10.02
2023-01-04T15:15:33.888Z,10.62
2023-01-04T15:18:00.588Z,10.78
2023-01-04T15:20:27.263Z,10.29
2023-01-04T15:22:54.090Z,10.01
2023-01-04T15:25:20.936Z,9.78
2023-01-04T15:27:47.645Z,10.51
2023-01-04T15:30:14.871Z,10.76
2023-01-04T15:32:42.008Z,10.16
2023-01-04T15:35:09.125Z,10.57
2023-01-04T15:37:35.818Z,11.61
2023-01-04T15:40:04.061Z,11.06
2023-01-04T15:42:31.091Z,10.41
2023-01-04T15:44:57.869Z,10.96
2023-01-04T15:47:24.552Z,10.46
2023-01-04T15:49:51.161Z,10.58
2023-01-04T15:52:17.752Z,10.46
2023-01-04T15:54:44.373Z,10.23
2023-01-04T15:57:11.078Z,10.50
2023-01-04T15:59:37.789Z,10.55
2023-01-04T16:02:04.448Z,10.40
2023-01-04T16:04:31.330Z,10.65
2023-01-04T16:06:58.572Z,9.97
2023-01-04T16:09:25.307Z,10.22
2023-01-04T16:11:51.963Z,10.24
2023-01-04T16:14:18.587Z,10.18
2023-01-04T16:16:45.260Z,10.10
2023-01-04T16:19:11.986Z,9.85
2023-01-04T16:21:38.614Z,10.33
2023-01-04T16:24:22.159Z,10.99
2023-01-04T16:26:52.189Z,10.05
2023-01-04T16:29:18.806Z,10.12
2023-01-04T16:31:45.567Z,9.71
2023-01-04T16:34:13.619Z,10.04
2023-01-04T16:36:40.334Z,9.98
2023-01-04T16:39:07.783Z,9.86
2023-01-04T16:41:34.738Z,9.75
2023-01-04T16:44:05.187Z,9.81
2023-01-04T16:46:34.157Z,10.07
2023-01-04T16:49:03.913Z,9.69
2023-01-04T16:51:33.813Z,9.48
2023-01-04T16:54:07.127Z,9.73
2023-01-04T16:56:34.707Z,9.95
2023-01-04T16:59:02.094Z,9.80
2023-01-04T17:01:34.492Z,9.43
2023-01-04T17:04:04.382Z,9.79
2023-01-04T17:06:34.619Z,9.47
2023-01-04T17:09:01.611Z,9.98
2023-01-04T17:14:17.281Z,9.37
2023-01-04T17:16:43.915Z,9.55
2023-01-04T17:19:10.604Z,9.80
2023-01-04T17:21:37.434Z,9.95
2023-01-04T17:24:04.170Z,10.49
2023-01-04T17:26:32.622Z,10.74
2023-01-04T17:29:01.440Z,9.90
2023-01-04T17:31:33.651Z,9.31
2023-01-04T17:34:00.738Z,9.39
2023-01-04T17:36:27.681Z,9.26
2023-01-04T17:38:54.637Z,9.76
2023-01-04T17:41:24.437Z,10.05
2023-01-04T17:43:55.472Z,9.97
2023-01-04T17:46:23.777Z,9.61
2023-01-04T17:49:17.810Z,9.41
2023-01-04T17:51:39.434Z,9.33
2023-01-04T17:54:07.056Z,9.67
2023-01-04T17:56:34.093Z,9.62
2023-01-04T17:59:02.904Z,9.73
2023-01-04T18:01:30.696Z,16.97
2023-01-04T18:03:59.096Z,17.64
2023-01-04T18:06:29.610Z,13.58
2023-01-04T18:08:57.431Z,10.18
2023-01-04T18:11:25.256Z,10.21
2023-01-04T18:13:52.716Z,9.50
2023-01-04T18:16:25.595Z,9.71
2023-01-04T18:18:54.966Z,10.57
2023-01-04T18:21:28.302Z,10.18
2023-01-04T18:29:32.957Z,12.00
2023-01-04T18:31:59.723Z,14.13
2023-01-04T18:34:26.643Z,13.44
2023-01-04T18:36:53.834Z,11.52
2023-01-04T18:39:20.536Z,9.90
2023-01-04T18:41:47.235Z,9.94
2023-01-04T18:44:32.064Z,9.71
2023-01-04T18:46:59.816Z,9.18
2023-01-04T18:49:26.510Z,9.19
2023-01-04T18:51:53.144Z,9.21
2023-01-04T18:54:19.825Z,8.71
2023-01-04T18:56:47.240Z,9.06
2023-01-04T18:59:14.680Z,9.24
2023-01-04T19:01:41.397Z,9.86
2023-01-04T19:04:08.184Z,9.55
2023-01-04T19:06:34.785Z,8.95
2023-01-04T19:09:06.281Z,9.24
2023-01-04T19:11:33.562Z,9.20
2023-01-04T19:14:03.383Z,9.21
2023-01-04T19:16:30.129Z,8.73
2023-01-04T19:19:00.742Z,9.20
2023-01-04T19:21:28.016Z,9.42
2023-01-04T19:23:54.956Z,8.68
2023-01-04T19:26:23.139Z,9.06
2023-01-04T19:28:50.602Z,10.09
2023-01-04T19:31:19.966Z,9.40
2023-01-04T19:33:47.078Z,10.54
2023-01-04T19:36:16.409Z,9.43
2023-01-04T19:38:43.039Z,10.03
2023-01-04T19:41:18.675Z,9.39
2023-01-04T19:43:45.453Z,9.93
2023-01-04T19:46:12.809Z,9.63
2023-01-04T19:48:40.061Z,9.79
2023-01-04T19:51:16.946Z,9.06
2023-01-04T19:53:44.395Z,9.86
2023-01-04T19:56:12.928Z,8.87
2023-01-04T19:58:40.736Z,8.42
2023-01-04T20:01:12.298Z,8.88
2023-01-04T20:03:39.197Z,8.51
2023-01-04T20:06:08.247Z,8.39
2023-01-04T20:08:34.945Z,8.24
2023-01-04T20:11:02.409Z,8.52
2023-01-04T20:13:30.700Z,8.33
2023-01-04T20:15:59.588Z,8.86
2023-01-04T20:18:27.131Z,8.62
2023-01-04T20:20:53.789Z,8.56
2023-01-04T20:23:21.714Z,8.81
2023-01-04T20:25:51.778Z,8.65
2023-01-04T20:28:21.218Z,8.48
2023-01-04T20:30:48.172Z,8.97
2023-01-04T20:33:15.172Z,8.85
2023-01-04T20:35:44.139Z,8.74
2023-01-04T20:38:12.262Z,8.98
2023-01-04T20:40:39.512Z,8.77
2023-01-04T20:43:06.507Z,8.74
2023-01-04T20:45:33.104Z,9.44
2023-01-04T20:47:59.804Z,8.78
2023-01-04T20:50:27.715Z,8.34
2023-01-04T20:52:54.367Z,8.13
2023-01-04T20:55:21.000Z,8.00
2023-01-04T20:57:47.608Z,7.84
2023-01-04T21:00:14.863Z,8.17
2023-01-04T21:02:41.708Z,8.04
2023-01-04T21:05:08.979Z,8.06
2023-01-04T21:07:35.646Z,8.30
2023-01-04T21:10:02.358Z,8.81
2023-01-04T21:12:29.013Z,9.24
2023-01-04T21:14:55.639Z,9.29
2023-01-04T21:17:22.350Z,9.25
2023-01-04T21:19:49.015Z,8.71
2023-01-04T21:22:15.685Z,8.92
2023-01-04T21:24:42.366Z,8.95
2023-01-04T21:27:09.049Z,9.36
2023-01-04T21:29:35.725Z,9.33
2023-01-04T21:32:02.349Z,9.16
2023-01-04T21:34:29.008Z,9.27
2023-01-04T21:36:55.655Z,9.39
2023-01-04T21:39:22.271Z,9.34
2023-01-04T21:41:48.938Z,9.33
2023-01-04T21:44:15.622Z,9.21
2023-01-04T21:46:42.355Z,10.36
2023-01-04T21:49:09.150Z,10.11
2023-01-04T21:51:35.755Z,9.95
2023-01-04T21:54:02.401Z,9.80
2023-01-04T21:56:29.153Z,9.93
2023-01-04T21:58:55.813Z,9.98
2023-01-04T22:01:29.644Z,10.62
2023-01-04T22:03:59.591Z,10.48
2023-01-04T22:06:26.351Z,9.83
2023-01-04T22:08:53.355Z,10.11
2023-01-04T22:11:20.673Z,9.96
2023-01-04T22:13:47.316Z,10.32
2023-01-04T22:16:16.726Z,10.91
2023-01-04T22:18:50.424Z,10.07
2023-01-04T22:21:19.804Z,10.29
2023-01-04T22:23:46.498Z,9.86
2023-01-04T22:26:13.237Z,9.71
2023-01-04T22:28:40.675Z,9.73
2023-01-04T22:31:11.047Z,9.96
2023-01-04T22:33:38.618Z,9.00
2023-01-04T22:36:21.956Z,9.66
2023-01-04T22:38:53.860Z,9.41
2023-01-04T22:41:22.425Z,9.66
2023-01-04T22:43:57.334Z,9.74
2023-01-04T22:46:25.830Z,9.43
2023-01-04T22:48:52.716Z,9.88
2023-01-04T22:51:20.914Z,9.71
2023-01-04T22:53:48.249Z,9.84
2023-01-04T22:56:19.386Z,9.52
2023-01-04T22:58:52.369Z,9.43
2023-01-04T23:01:21.929Z,9.46
2023-01-04T23:03:48.952Z,10.33
2023-01-04T23:06:15.875Z,10.57
2023-01-04T23:08:42.644Z,10.13
2023-01-04T23:11:13.139Z,10.29
2023-01-04T23:13:40.398Z,10.84
2023-01-04T23:16:10.427Z,9.92
2023-01-04T23:18:37.560Z,9.55
2023-01-04T23:21:05.392Z,9.48
2023-01-04T23:23:32.947Z,8.73
2023-01-04T23:26:09.055Z,8.93
2023-01-04T23:28:35.738Z,8.87
2023-01-04T23:31:08.692Z,9.05
2023-01-04T23:33:36.673Z,9.42
2023-01-04T23:36:28.188Z,8.96
2023-01-04T23:38:57.067Z,9.34
2023-01-04T23:41:24.526Z,9.48
2023-01-04T23:43:51.178Z,9.46
2023-01-04T23:46:17.899Z,9.07
2023-01-04T23:48:44.783Z,9.13
2023-01-04T23:51:15.081Z,9.12
2023-01-04T23:53:41.912Z,9.41
2023-01-04T23:56:15.548Z,9.39
2023-01-04T23:58:42.579Z,7.58
